Time;durP1;ratioP1;P1;durP2;ratioP2;P2;SDS_P1;SDS_P2;PMS_P1;PMS_P2;Temp;Humidity;BMP_temperature;BMP_pressure;BME280_temperature;BME280_humidity;BME280_pressure;Samples;Min_cycle;Max_cycle;Signal;HPM_P1;HPM_P2
2022/08/09 00:02:05;;;;;;;6.28;4.22;;;;;;;23.02;60.65;94705.56;5053731;28;20712;-64
2022/08/09 00:04:30;;;;;;;4.88;4.25;;;;;;;22.75;62.96;94657.38;5053699;28;20189;-63
2022/08/09 00:06:56;;;;;;;4.88;3.70;;;;;;;22.69;62.44;94670.34;5053552;28;20209;-62
2022/08/09 00:09:22;;;;;;;4.03;3.63;;;;;;;22.63;63.37;94640.84;5059541;22;20218;-66
2022/08/09 00:11:47;;;;;;;6.13;3.75;;;;;;;22.56;62.80;94671.16;5053481;28;20260;-61
2022/08/09 00:14:14;;;;;;;5.70;4.00;;;;;;;22.71;62.97;94657.97;5053563;28;20213;-60
2022/08/09 00:16:39;;;;;;;4.78;4.13;;;;;;;22.60;62.58;94664.59;5053497;28;20239;-65
2022/08/09 00:19:05;;;;;;;9.50;4.30;;;;;;;22.52;62.79;94672.56;5053985;28;20189;-64
2022/08/09 00:21:31;;;;;;;7.53;3.80;;;;;;;22.53;63.02;94663.78;5047518;22;20233;-63
2022/08/09 00:23:57;;;;;;;4.95;4.10;;;;;;;22.61;62.92;94666.19;5035641;28;20207;-61
2022/08/09 00:26:24;;;;;;;7.18;3.92;;;;;;;22.69;63.06;94668.56;5053236;28;20255;-66
2022/08/09 00:28:50;;;;;;;7.43;3.90;;;;;;;22.79;62.71;94676.69;5053393;28;20189;-66
2022/08/09 00:31:15;;;;;;;4.55;4.07;;;;;;;22.96;63.87;94653.72;5053283;28;20297;-65
2022/08/09 00:33:42;;;;;;;8.00;3.92;;;;;;;22.96;64.11;94643.34;5053559;28;20213;-63
2022/08/09 00:36:08;;;;;;;6.32;4.28;;;;;;;22.80;64.56;94649.78;5053439;28;20212;-65
2022/08/09 00:38:34;;;;;;;8.73;4.22;;;;;;;22.80;64.78;94649.78;5053295;28;20178;-61
2022/08/09 00:40:59;;;;;;;4.22;3.83;;;;;;;22.49;65.88;94621.13;5053186;28;20209;-63
2022/08/09 00:43:25;;;;;;;8.32;4.07;;;;;;;22.73;64.79;94653.38;5053483;28;20197;-65
2022/08/09 00:45:50;;;;;;;5.68;3.70;;;;;;;22.68;64.25;94666.97;5053158;28;20213;-64
2022/08/09 00:48:16;;;;;;;4.20;3.80;;;;;;;22.58;64.13;94687.34;5052859;28;20686;-64
2022/08/09 00:50:41;;;;;;;4.90;4.40;;;;;;;22.39;64.91;94663.00;5052845;28;20206;-64
2022/08/09 00:53:09;;;;;;;4.95;4.18;;;;;;;22.21;65.46;94643.91;5034690;28;20217;-63
2022/08/09 00:55:34;;;;;;;6.47;4.05;;;;;;;22.35;63.80;94679.94;5034542;28;20245;-63
2022/08/09 00:58:00;;;;;;;5.80;4.00;;;;;;;22.27;64.52;94679.34;5052821;28;20284;-62
2022/08/09 01:00:26;;;;;;;6.53;4.13;;;;;;;22.10;65.03;94660.06;5052909;28;20200;-63
2022/08/09 01:03:07;;;;;;;4.32;3.92;;;;;;;22.02;65.75;94650.66;5033458;28;20664;-63
2022/08/09 01:05:51;;;;;;;4.50;4.10;;;;;;;21.96;66.53;94643.69;5052661;28;20296;-61
2022/08/09 01:08:40;;;;;;;4.63;4.07;;;;;;;21.68;67.77;94622.34;5052915;28;20234;-60
2022/08/09 01:11:30;;;;;;;4.35;3.95;;;;;;;21.83;67.52;94627.38;5052948;28;20313;-62
2022/08/09 01:14:01;;;;;;;5.65;3.72;;;;;;;21.87;67.00;94644.09;5034597;28;20297;-63
2022/08/09 01:16:41;;;;;;;6.15;4.28;;;;;;;21.80;67.38;94645.84;5051996;28;20260;-63
2022/08/09 01:19:35;;;;;;;5.85;4.03;;;;;;;21.67;68.21;94624.16;5052861;28;20197;-62
2022/08/09 01:22:25;;;;;;;7.47;4.40;;;;;;;21.33;69.54;94595.84;5031529;28;20253;-63
2022/08/09 01:25:03;;;;;;;4.68;4.28;;;;;;;21.45;69.45;94599.44;5052510;28;20193;-63
2022/08/09 01:27:30;;;;;;;4.43;4.00;;;;;;;21.57;68.24;94631.50;5052996;28;20212;-63
2022/08/09 01:29:59;;;;;;;7.35;4.05;;;;;;;21.57;68.62;94620.38;5052498;28;20315;-61
2022/08/09 01:32:44;;;;;;;5.00;3.85;;;;;;;21.68;68.95;94607.63;5052439;28;20615;-61
2022/08/09 01:35:35;;;;;;;5.65;3.65;;;;;;;21.54;68.14;94623.34;5052153;28;20362;-60
2022/08/09 01:38:05;;;;;;;7.13;4.18;;;;;;;21.57;67.83;94621.16;5052665;28;20189;-64
2022/08/09 01:40:34;;;;;;;5.43;4.35;;;;;;;21.63;67.42;94627.34;5051948;28;20690;-63
2022/08/09 01:43:01;;;;;;;6.68;3.75;;;;;;;21.68;67.08;94633.50;5034172;28;20278;-62
2022/08/09 01:45:29;;;;;;;5.35;3.67;;;;;;;21.81;67.26;94621.56;5052077;28;20262;-64
2022/08/09 01:47:57;;;;;;;5.78;3.92;;;;;;;21.93;66.25;94646.72;5052216;28;20678;-65
2022/08/09 01:50:25;;;;;;;4.82;4.25;;;;;;;21.98;67.15;94631.34;5034053;28;20189;-61
2022/08/09 01:52:52;;;;;;;5.10;4.40;;;;;;;22.09;68.00;94609.25;5051986;28;20182;-59
2022/08/09 01:55:21;;;;;;;7.25;4.63;;;;;;;22.02;69.15;94596.28;5051728;28;20627;-61
2022/08/09 01:57:50;;;;;;;4.38;3.85;;;;;;;22.16;68.62;94603.06;5052068;28;20243;-63
2022/08/09 02:00:15;;;;;;;4.07;3.78;;;;;;;22.42;68.87;94605.59;5051864;28;20263;-66
2022/08/09 02:02:45;;;;;;;5.43;4.20;;;;;;;22.41;68.54;94609.19;5051780;28;20197;-63
2022/08/09 02:05:13;;;;;;;4.28;3.60;;;;;;;22.40;68.40;94606.81;5051571;28;20221;-64
2022/08/09 02:08:01;;;;;;;6.00;4.18;;;;;;;22.54;69.28;94596.19;5033841;28;20287;-61
2022/08/09 02:10:31;;;;;;;5.18;4.25;;;;;;;22.78;67.27;94631.06;5051592;28;20281;-63
2022/08/09 02:13:01;;;;;;;5.00;4.15;;;;;;;22.68;68.83;94615.13;5051559;28;20185;-60
2022/08/09 02:15:30;;;;;;;6.40;4.05;;;;;;;22.47;69.94;94592.03;5051404;28;20323;-66
2022/08/09 02:17:56;;;;;;;7.40;4.07;;;;;;;22.37;69.42;94607.19;5051694;28;20181;-64
2022/08/09 02:20:24;;;;;;;5.38;3.97;;;;;;;22.22;70.68;94591.09;5051549;28;20177;-64
2022/08/09 02:23:16;;;;;;;4.35;3.88;;;;;;;21.81;72.80;94546.50;5051652;28;20208;-63
2022/08/09 02:25:44;;;;;;;4.95;4.07;;;;;;;21.77;72.17;94574.59;5051569;28;20210;-63
2022/08/09 02:28:20;;;;;;;8.50;3.90;;;;;;;21.60;72.03;94576.78;5051468;28;20259;-63
2022/08/09 02:30:57;;;;;;;4.18;3.75;;;;;;;21.68;72.00;94581.75;5051460;28;20215;-59
2022/08/09 02:33:25;;;;;;;9.30;4.00;;;;;;;21.95;71.04;94602.50;5051609;28;20177;-60
2022/08/09 02:35:55;;;;;;;5.53;3.85;;;;;;;22.14;69.75;94632.75;5051648;28;20225;-65
2022/08/09 02:38:27;;;;;;;4.03;3.58;;;;;;;22.22;67.87;94679.19;5051541;28;20217;-61
2022/08/09 02:40:57;;;;;;;5.10;3.60;;;;;;;22.07;68.58;94653.47;5051435;28;20217;-63
2022/08/09 02:43:25;;;;;;;4.80;4.30;;;;;;;22.12;68.02;94668.44;5051343;28;20193;-64
2022/08/09 02:45:52;;;;;;;4.47;3.53;;;;;;;22.04;68.71;94647.91;5051195;28;20211;-64
2022/08/09 02:48:20;;;;;;;5.53;3.85;;;;;;;22.08;69.04;94643.91;5051181;28;20231;-62
2022/08/09 02:50:53;;;;;;;5.75;3.97;;;;;;;21.89;69.88;94631.75;5051114;28;20236;-66
2022/08/09 02:53:25;;;;;;;4.93;3.97;;;;;;;21.90;70.80;94616.03;5051142;28;20184;-63
2022/08/09 02:55:54;;;;;;;5.53;3.92;;;;;;;21.60;72.23;94594.09;5051132;28;20206;-64
2022/08/09 02:58:22;;;;;;;7.20;4.80;;;;;;;21.50;73.45;94576.38;5051089;28;20298;-63
2022/08/09 03:00:48;;;;;;;4.75;3.95;;;;;;;21.60;73.28;94587.13;5051153;28;20263;-63
2022/08/09 03:03:16;;;;;;;5.20;4.00;;;;;;;21.50;73.47;94584.13;5051070;28;20716;-64
2022/08/09 03:05:43;;;;;;;5.18;4.25;;;;;;;21.74;72.97;94604.25;5051024;28;20573;-61
2022/08/09 03:08:11;;;;;;;6.28;4.88;;;;;;;21.55;74.33;94588.72;5051156;28;20185;-64
2022/08/09 03:10:38;;;;;;;9.05;5.35;;;;;;;21.60;74.78;94583.75;5051060;28;20229;-62
2022/08/09 03:13:05;;;;;;;7.10;4.70;;;;;;;21.50;75.27;94568.63;5050955;28;20186;-63
2022/08/09 03:15:32;;;;;;;8.68;4.80;;;;;;;21.44;75.84;94574.59;5050933;28;20233;-61
2022/08/09 03:17:57;;;;;;;6.57;4.47;;;;;;;21.40;76.26;94564.81;5050790;28;20192;-61
2022/08/09 03:20:24;;;;;;;6.43;4.55;;;;;;;21.28;77.03;94568.97;5050616;28;20173;-60
2022/08/09 03:22:50;;;;;;;6.90;4.28;;;;;;;21.22;77.93;94573.16;5050661;28;20280;-60
2022/08/09 03:25:16;;;;;;;7.30;4.22;;;;;;;21.34;76.62;94600.03;5050661;28;20268;-60
2022/08/09 03:27:42;;;;;;;5.10;4.15;;;;;;;21.15;78.21;94574.94;5054343;28;20189;-60
2022/08/09 03:30:09;;;;;;;4.85;4.45;;;;;;;21.21;77.12;94596.63;5054207;28;20201;-60
2022/08/09 03:32:36;;;;;;;9.43;4.40;;;;;;;21.43;76.43;94616.94;5054222;28;20203;-65
2022/08/09 03:35:02;;;;;;;4.68;4.30;;;;;;;21.42;75.87;94627.50;5054268;28;20202;-61
2022/08/09 03:37:28;;;;;;;6.78;4.70;;;;;;;21.44;75.55;94633.28;5054105;28;20294;-61
2022/08/09 03:39:53;;;;;;;7.10;4.57;;;;;;;21.43;75.67;94629.13;5060492;22;20214;-60
2022/08/09 03:42:25;;;;;;;6.30;4.90;;;;;;;21.49;75.70;94634.28;5053986;28;20205;-63
2022/08/09 03:44:50;;;;;;;7.03;4.53;;;;;;;21.40;75.54;94640.63;5053946;28;20254;-63
2022/08/09 03:47:16;;;;;;;5.18;4.25;;;;;;;21.40;75.87;94634.66;5053731;28;20206;-64
2022/08/09 03:49:42;;;;;;;7.55;4.53;;;;;;;21.52;76.20;94633.91;5054040;28;20189;-62
2022/08/09 03:52:08;;;;;;;4.95;4.45;;;;;;;21.51;76.07;94637.47;5053936;28;20207;-63
2022/08/09 03:54:36;;;;;;;6.13;4.25;;;;;;;21.40;77.47;94619.13;5054008;28;20213;-61
2022/08/09 03:57:07;;;;;;;7.63;4.47;;;;;;;21.24;77.73;94619.50;5053876;28;20218;-60
2022/08/09 03:59:34;;;;;;;7.38;4.45;;;;;;;21.43;77.72;94622.13;5053982;28;20193;-62
2022/08/09 04:02:00;;;;;;;4.78;4.25;;;;;;;21.47;77.59;94627.72;5053747;28;20233;-65
2022/08/09 04:04:26;;;;;;;6.38;4.90;;;;;;;21.58;76.93;94640.06;5053776;28;20228;-61
2022/08/09 04:06:52;;;;;;;7.70;5.13;;;;;;;21.50;76.58;94645.44;5053624;28;20232;-63
2022/08/09 04:09:17;;;;;;;4.78;4.22;;;;;;;21.67;76.31;94652.59;5035700;28;20201;-64
2022/08/09 04:11:49;;;;;;;5.90;4.65;;;;;;;21.72;76.86;94655.41;5035589;28;20202;-63
2022/08/09 04:14:16;;;;;;;6.82;4.75;;;;;;;21.84;75.85;94662.59;5053621;28;20277;-65
2022/08/09 04:16:41;;;;;;;9.32;5.57;;;;;;;21.90;75.28;94677.38;5053398;28;20209;-64
2022/08/09 04:19:07;;;;;;;6.93;5.85;;;;;;;21.77;75.57;94668.56;5053834;28;20186;-65
2022/08/09 04:21:32;;;;;;;7.57;5.50;;;;;;;21.82;74.74;94690.47;5053695;28;20213;-66
2022/08/09 04:23:58;;;;;;;9.35;5.75;;;;;;;21.76;75.31;94668.75;5053727;28;20200;-65
2022/08/09 04:26:24;;;;;;;9.68;5.70;;;;;;;21.73;75.89;94667.34;5053444;28;20359;-62
2022/08/09 04:28:49;;;;;;;7.97;5.47;;;;;;;21.56;76.58;94666.16;5035480;28;20682;-63
2022/08/09 04:31:14;;;;;;;7.78;5.45;;;;;;;21.64;76.39;94663.38;5035345;28;20213;-60
2022/08/09 04:33:41;;;;;;;11.25;5.28;;;;;;;21.60;76.27;94671.72;5053688;28;20193;-60
2022/08/09 04:36:06;;;;;;;6.88;4.57;;;;;;;21.90;81.92;94573.81;5053234;28;20213;-63
2022/08/09 04:38:32;;;;;;;7.13;5.05;;;;;;;22.33;79.76;94655.25;5053374;28;20197;-62
2022/08/09 04:40:57;;;;;;;6.95;5.30;;;;;;;22.55;80.03;94643.63;5053166;28;20213;-63
2022/08/09 04:43:24;;;;;;;6.50;5.18;;;;;;;22.94;78.53;94681.66;5035349;28;20653;-63
2022/08/09 04:45:50;;;;;;;5.85;5.20;;;;;;;23.04;71.18;94809.91;5035326;28;20340;-61
2022/08/09 04:48:15;;;;;;;6.47;5.55;;;;;;;22.95;71.71;94782.59;5034993;28;20264;-60
2022/08/09 04:50:41;;;;;;;8.85;5.53;;;;;;;22.79;74.72;94723.38;5034940;28;20236;-61
2022/08/09 04:53:09;;;;;;;10.30;5.55;;;;;;;22.75;76.02;94701.44;5052798;28;20182;-60
2022/08/09 04:55:36;;;;;;;5.25;4.75;;;;;;;22.99;74.92;94737.09;5034880;28;20217;-60
2022/08/09 04:58:01;;;;;;;6.68;5.72;;;;;;;23.14;72.15;94786.94;5053094;28;20177;-63
2022/08/09 05:00:27;;;;;;;11.32;5.55;;;;;;;23.46;75.11;94724.78;5052739;28;20211;-61
2022/08/09 05:02:53;;;;;;;12.02;5.45;;;;;;;23.30;72.32;94786.50;5034837;28;20205;-59
2022/08/09 05:05:19;;;;;;;8.88;5.38;;;;;;;23.01;71.71;94786.97;5052693;28;20694;-60
2022/08/09 05:07:44;;;;;;;9.55;5.78;;;;;;;23.00;73.45;94740.47;5052866;28;20616;-64
2022/08/09 05:10:11;;;;;;;11.23;6.30;;;;;;;22.96;74.17;94741.91;5052538;28;20401;-65
2022/08/09 05:12:37;;;;;;;9.25;6.53;;;;;;;23.01;73.02;94765.41;5052557;28;20189;-64
2022/08/09 05:15:02;;;;;;;7.93;5.68;;;;;;;23.07;74.69;94738.66;5052706;28;20708;-65
2022/08/09 05:17:28;;;;;;;6.65;5.72;;;;;;;23.19;75.83;94714.47;5052342;28;20205;-60
2022/08/09 05:19:53;;;;;;;9.13;6.95;;;;;;;23.11;73.51;94756.22;5052371;28;20564;-61
2022/08/09 05:22:19;;;;;;;7.70;6.35;;;;;;;23.18;74.89;94732.84;5034532;28;20206;-63
2022/08/09 05:24:45;;;;;;;9.85;5.80;;;;;;;23.40;75.23;94721.22;5034700;28;20558;-65
2022/08/09 05:27:11;;;;;;;9.68;6.07;;;;;;;23.59;75.18;94733.31;5052140;28;20201;-63
2022/08/09 05:29:36;;;;;;;8.77;6.32;;;;;;;23.87;76.14;94722.56;5052394;28;20190;-62
2022/08/09 05:32:02;;;;;;;11.00;5.95;;;;;;;24.09;75.45;94745.44;5052069;28;20213;-64
2022/08/09 05:34:30;;;;;;;8.88;5.90;;;;;;;24.33;75.19;94756.84;5052021;28;20254;-64
2022/08/09 05:36:56;;;;;;;10.60;5.63;;;;;;;24.54;72.99;94798.09;5050073;28;20218;-64
2022/08/09 05:39:22;;;;;;;8.50;5.25;;;;;;;24.73;71.73;94822.38;5052273;28;20276;-64
2022/08/09 05:41:48;;;;;;;8.15;5.78;;;;;;;24.99;68.91;94877.59;5034128;28;20209;-62
2022/08/09 05:44:13;;;;;;;10.32;7.05;;;;;;;25.12;66.96;94912.31;5052537;28;20688;-61
2022/08/09 05:46:38;;;;;;;10.20;6.57;;;;;;;24.74;65.45;94923.63;5052117;28;20213;-62
2022/08/09 05:49:04;;;;;;;17.65;7.50;;;;;;;24.67;64.92;94938.41;5051582;28;20198;-59
2022/08/09 05:51:29;;;;;;;12.50;6.65;;;;;;;24.67;71.16;94786.78;5052096;28;20284;-64
2022/08/09 05:53:55;;;;;;;8.73;6.18;;;;;;;24.51;66.00;94907.72;5052196;28;20202;-62
2022/08/09 05:56:20;;;;;;;13.95;6.85;;;;;;;24.23;69.17;94829.28;5034065;28;20216;-61
2022/08/09 05:58:46;;;;;;;13.05;6.43;;;;;;;24.43;68.07;94855.16;5052031;28;20194;-61
2022/08/09 06:01:11;;;;;;;11.65;6.15;;;;;;;24.46;67.75;94858.13;5033806;28;20208;-61
2022/08/09 06:03:37;;;;;;;9.65;6.13;;;;;;;24.63;68.13;94851.44;5052330;28;20220;-64
2022/08/09 06:06:02;;;;;;;9.65;6.55;;;;;;;24.62;66.59;94888.06;5051714;28;20228;-63
2022/08/09 06:08:28;;;;;;;10.27;6.40;;;;;;;24.46;65.61;94912.72;5052010;28;20244;-62
2022/08/09 06:10:55;;;;;;;11.05;6.45;;;;;;;24.47;66.77;94867.53;5051835;28;20279;-62
2022/08/09 06:13:21;;;;;;;10.57;6.45;;;;;;;24.62;66.67;94888.84;5052011;28;20197;-64
2022/08/09 06:15:48;;;;;;;11.98;6.82;;;;;;;24.24;66.31;94890.66;5034064;28;20217;-62
2022/08/09 06:18:13;;;;;;;8.07;7.13;;;;;;;24.36;65.61;94899.38;5051648;28;20251;-64
2022/08/09 06:20:40;;;;;;;13.70;6.88;;;;;;;24.33;66.07;94892.00;5051697;28;20201;-59
2022/08/09 06:23:06;;;;;;;9.70;6.30;;;;;;;24.37;66.99;94867.19;5051800;28;20186;-62
2022/08/09 06:25:32;;;;;;;10.25;6.57;;;;;;;24.54;66.71;94868.31;5051482;28;20214;-64
2022/08/09 06:27:57;;;;;;;8.20;6.45;;;;;;;24.74;65.93;94896.81;5051627;28;20557;-62
2022/08/09 06:30:23;;;;;;;8.57;6.60;;;;;;;24.83;65.66;94903.31;5051555;28;20193;-60
2022/08/09 06:32:51;;;;;;;11.63;6.75;;;;;;;24.99;64.34;94928.81;5051464;28;20201;-58
2022/08/09 06:35:17;;;;;;;18.38;7.82;;;;;;;25.04;64.39;94923.81;5033527;28;20292;-63
2022/08/09 06:37:43;;;;;;;7.68;6.88;;;;;;;25.01;63.39;94937.22;5051559;28;20189;-60
2022/08/09 06:40:09;;;;;;;11.15;7.20;;;;;;;25.18;63.73;94942.69;5051403;28;20192;-63
2022/08/09 06:42:35;;;;;;;11.60;7.18;;;;;;;25.15;63.26;94938.72;5017046;28;20189;-63
2022/08/09 06:45:01;;;;;;;11.05;7.78;;;;;;;25.16;62.34;94965.53;5051248;28;20186;-64
2022/08/09 06:47:27;;;;;;;13.40;9.82;;;;;;;25.24;60.04;95019.94;5050945;28;20710;-62
2022/08/09 06:49:52;;;;;;;15.30;8.75;;;;;;;25.33;60.88;94982.25;5051255;28;20202;-62
2022/08/09 06:52:18;;;;;;;14.88;8.60;;;;;;;25.42;60.18;95000.03;5051200;28;20286;-64
2022/08/09 06:54:44;;;;;;;14.30;7.68;;;;;;;25.41;60.72;94980.19;5051025;28;20209;-62
2022/08/09 06:57:10;;;;;;;9.15;7.80;;;;;;;25.46;59.72;94993.38;5033066;28;20205;-59
2022/08/09 06:59:36;;;;;;;12.85;7.32;;;;;;;25.53;60.17;94993.34;5051013;28;20197;-63
2022/08/09 07:02:02;;;;;;;10.27;7.68;;;;;;;25.47;59.27;95015.00;5051105;28;20634;-62
2022/08/09 07:04:27;;;;;;;11.15;7.13;;;;;;;25.54;58.83;95010.53;5033188;28;20201;-64
2022/08/09 07:06:53;;;;;;;10.65;7.35;;;;;;;25.55;57.45;95033.75;5050888;28;20298;-63
2022/08/09 07:09:19;;;;;;;10.38;7.13;;;;;;;25.37;59.90;94978.22;5050951;28;20227;-61
2022/08/09 07:11:44;;;;;;;9.15;6.28;;;;;;;25.34;59.94;94965.59;5051011;28;20605;-64
2022/08/09 07:14:13;;;;;;;9.27;6.93;;;;;;;25.42;60.08;94970.56;5050643;28;20217;-62
2022/08/09 07:16:38;;;;;;;9.30;6.97;;;;;;;25.34;59.17;94989.03;5032994;28;20221;-62
2022/08/09 07:19:04;;;;;;;7.75;6.47;;;;;;;25.44;59.18;94977.16;5033225;28;20190;-62
2022/08/09 07:21:30;;;;;;;10.15;6.47;;;;;;;25.58;57.58;95024.72;5050772;28;20205;-60
2022/08/09 07:23:55;;;;;;;7.18;5.75;;;;;;;25.66;58.43;94988.00;5050962;28;20189;-64
2022/08/09 07:26:21;;;;;;;7.45;5.60;;;;;;;25.69;57.51;95013.63;5050525;28;20287;-63
2022/08/09 07:28:46;;;;;;;8.85;5.40;;;;;;;25.80;57.08;95025.94;5050698;28;20729;-60
2022/08/09 07:31:12;;;;;;;9.23;6.20;;;;;;;25.93;57.08;95030.25;5050614;28;20217;-59
2022/08/09 07:33:37;;;;;;;9.85;5.90;;;;;;;26.05;57.83;94992.84;5050713;28;20268;-62
2022/08/09 07:36:03;;;;;;;10.85;5.35;;;;;;;26.08;56.87;95034.13;5032845;28;20220;-63
2022/08/09 07:38:28;;;;;;;8.75;5.45;;;;;;;26.18;56.31;95047.47;5050862;28;20643;-64
2022/08/09 07:40:54;;;;;;;6.22;5.22;;;;;;;26.20;55.25;95066.28;5050571;28;20300;-60
2022/08/09 07:43:19;;;;;;;9.45;5.90;;;;;;;26.17;54.54;95074.56;5050817;28;20670;-61
2022/08/09 07:45:46;;;;;;;6.18;5.30;;;;;;;26.22;55.18;95053.84;5050646;28;20259;-62
2022/08/09 07:48:12;;;;;;;6.40;5.03;;;;;;;26.43;55.90;95036.97;5050465;28;20623;-64
2022/08/09 07:50:42;;;;;;;6.47;5.30;;;;;;;26.54;54.63;95067.56;5050595;28;20209;-60
2022/08/09 07:53:07;;;;;;;7.15;5.10;;;;;;;26.61;54.66;95061.25;5050400;28;20243;-63
2022/08/09 07:55:34;;;;;;;8.88;5.07;;;;;;;26.57;53.63;95096.59;5050192;28;20213;-62
2022/08/09 07:58:00;;;;;;;6.22;4.90;;;;;;;26.53;54.66;95064.16;5032430;28;20272;-62
2022/08/09 08:00:26;;;;;;;8.30;4.82;;;;;;;26.71;53.27;95088.63;5050102;28;20206;-64
2022/08/09 08:02:52;;;;;;;8.57;5.03;;;;;;;26.64;52.24;95120.78;5032533;28;20543;-62
2022/08/09 08:05:18;;;;;;;6.45;4.55;;;;;;;26.65;52.73;95100.72;5032500;28;20189;-64
2022/08/09 08:07:43;;;;;;;6.07;5.00;;;;;;;26.73;52.76;95091.84;5050257;28;20186;-62
2022/08/09 08:10:09;;;;;;;6.78;3.90;;;;;;;26.93;51.40;95136.78;5032176;28;20686;-64
2022/08/09 08:12:37;;;;;;;9.23;5.03;;;;;;;27.00;53.58;95056.59;5034241;28;20274;-60
2022/08/09 08:15:04;;;;;;;4.78;3.95;;;;;;;27.06;52.13;95103.50;5053559;28;20217;-65
2022/08/09 08:17:29;;;;;;;4.78;3.88;;;;;;;27.17;49.24;95177.69;5053756;28;20674;-63
2022/08/09 08:19:55;;;;;;;5.65;4.20;;;;;;;27.03;51.57;95096.09;5053542;28;20181;-62
2022/08/09 08:22:20;;;;;;;7.65;4.07;;;;;;;27.32;49.22;95157.19;5035611;28;20213;-63
2022/08/09 08:24:48;;;;;;;7.40;5.10;;;;;;;27.37;49.44;95145.09;5053444;28;20182;-64
2022/08/09 08:27:13;;;;;;;6.13;4.15;;;;;;;27.36;50.56;95106.94;5053266;28;20690;-64
2022/08/09 08:29:38;;;;;;;7.32;4.32;;;;;;;27.53;49.63;95142.88;5053444;28;20193;-60
2022/08/09 08:32:04;;;;;;;8.05;3.78;;;;;;;27.59;49.04;95147.22;5053464;28;20574;-60
2022/08/09 08:34:30;;;;;;;5.10;3.90;;;;;;;27.74;48.24;95155.44;5053280;28;20218;-61
2022/08/09 08:36:55;;;;;;;5.60;3.35;;;;;;;27.75;46.75;95201.47;5035488;28;20606;-61
2022/08/09 08:39:20;;;;;;;4.85;3.58;;;;;;;27.91;45.87;95224.38;5053223;28;20185;-60
2022/08/09 08:41:46;;;;;;;6.22;3.92;;;;;;;27.96;45.64;95216.69;5053255;28;20265;-62
2022/08/09 08:44:13;;;;;;;5.88;4.25;;;;;;;27.92;44.69;95250.28;5053481;28;20186;-62
2022/08/09 08:46:39;;;;;;;6.20;4.15;;;;;;;28.04;45.13;95232.84;5053007;28;20209;-69
2022/08/09 08:49:07;;;;;;;4.05;3.63;;;;;;;28.05;46.03;95183.97;5053522;28;20193;-64
2022/08/09 08:51:39;;;;;;;4.03;3.20;;;;;;;28.27;42.61;95281.00;5052973;28;20205;-63
2022/08/09 08:54:08;;;;;;;3.65;3.10;;;;;;;28.15;43.47;95241.75;5035091;28;20217;-65
2022/08/09 08:56:38;;;;;;;7.90;3.50;;;;;;;28.16;42.99;95249.38;5035084;28;20623;-62
2022/08/09 08:59:06;;;;;;;5.28;3.10;;;;;;;28.31;41.43;95293.44;5052880;28;20710;-64
2022/08/09 09:01:34;;;;;;;4.88;3.38;;;;;;;28.28;43.92;95210.16;5052783;28;20292;-60
2022/08/09 09:04:01;;;;;;;6.32;4.80;;;;;;;28.53;42.31;95262.31;5053466;28;20639;-61
2022/08/09 09:06:30;;;;;;;6.03;2.90;;;;;;;28.30;42.42;95252.59;5034983;28;20262;-64
2022/08/09 09:08:57;;;;;;;8.18;3.13;;;;;;;28.21;41.87;95249.50;5053324;28;20189;-63
2022/08/09 09:11:23;;;;;;;6.65;3.65;;;;;;;28.51;41.78;95249.44;5034715;28;20201;-63
2022/08/09 09:13:54;;;;;;;6.10;2.72;;;;;;;28.66;43.14;95181.78;5052619;28;20206;-65
2022/08/09 09:16:19;;;;;;;6.50;3.10;;;;;;;28.87;41.49;95243.22;5052709;28;20584;-61
2022/08/09 09:18:45;;;;;;;2.83;2.58;;;;;;;29.07;40.80;95266.47;5052622;28;20189;-64
2022/08/09 09:21:10;;;;;;;5.97;2.78;;;;;;;29.05;40.02;95303.34;5052530;28;20275;-63
2022/08/09 09:23:44;;;;;;;3.53;2.53;;;;;;;29.01;38.25;95344.91;5033678;28;20218;-64
2022/08/09 09:26:14;;;;;;;4.25;2.65;;;;;;;29.05;37.49;95366.19;5059843;22;20197;-60
2022/08/09 09:28:46;;;;;;;3.67;2.65;;;;;;;29.37;36.46;95401.56;5012315;28;20714;-63
2022/08/09 09:31:16;;;;;;;4.05;2.72;;;;;;;29.45;36.39;95395.97;5012875;28;20217;-63
2022/08/09 09:33:41;;;;;;;5.72;3.03;;;;;;;29.13;36.47;95363.25;5012872;28;20213;-63
2022/08/09 09:36:08;;;;;;;5.22;3.10;;;;;;;29.37;37.63;95320.31;5012613;28;20253;-60
2022/08/09 09:38:55;;;;;;;3.75;2.42;;;;;;;29.28;35.23;95395.09;5012603;28;20195;-63
2022/08/09 09:41:25;;;;;;;2.65;2.45;;;;;;;29.70;36.08;95375.56;5012831;28;20285;-64
2022/08/09 09:43:51;;;;;;;2.90;2.60;;;;;;;30.10;33.32;95482.41;5013318;28;20270;-62
2022/08/09 09:46:17;;;;;;;4.00;2.30;;;;;;;29.69;30.68;95591.63;4994974;28;20313;-64
2022/08/09 09:48:56;;;;;;;4.18;2.40;;;;;;;29.82;31.80;95486.53;5012672;28;20190;-59
2022/08/09 09:51:31;;;;;;;6.13;2.50;;;;;;;29.94;31.64;95494.38;5012960;28;20235;-63
2022/08/09 09:54:12;;;;;;;5.97;2.25;;;;;;;30.16;33.20;95437.66;4995214;28;20178;-63
2022/08/09 09:56:43;;;;;;;3.42;2.47;;;;;;;29.90;33.33;95417.19;5012384;28;20207;-63
2022/08/09 09:59:11;;;;;;;5.53;2.00;;;;;;;29.76;33.08;95421.09;5012521;28;20182;-64
2022/08/09 10:01:37;;;;;;;4.05;2.47;;;;;;;29.64;31.87;95451.72;5012551;28;20218;-65
2022/08/09 10:04:04;;;;;;;2.78;2.30;;;;;;;29.19;33.18;95398.28;5012285;28;20732;-63
2022/08/09 10:06:39;;;;;;;4.90;2.13;;;;;;;29.41;32.05;95434.16;5012559;28;20659;-63
2022/08/09 10:09:05;;;;;;;4.05;2.17;;;;;;;29.37;33.43;95385.84;5012416;28;20264;-63
2022/08/09 10:11:32;;;;;;;2.78;2.08;;;;;;;29.37;33.40;95367.50;5012210;28;20215;-61
2022/08/09 10:13:58;;;;;;;2.03;1.80;;;;;;;29.37;32.79;95388.47;5012157;28;20277;-63
2022/08/09 10:16:35;;;;;;;8.07;2.10;;;;;;;29.44;31.27;95456.50;5012180;28;20289;-63
2022/08/09 10:19:05;;;;;;;5.10;1.73;;;;;;;29.29;31.83;95433.34;5012305;28;20244;-59
2022/08/09 10:21:32;;;;;;;1.80;1.70;;;;;;;29.32;32.68;95384.94;5011986;28;20216;-63
2022/08/09 10:24:03;;;;;;;3.33;2.20;;;;;;;29.40;32.82;95363.63;5011866;28;20215;-64
2022/08/09 10:26:29;;;;;;;5.55;2.30;;;;;;;29.31;37.62;95171.13;5011820;28;20297;-61
2022/08/09 10:28:56;;;;;;;4.45;3.15;;;;;;;29.90;36.20;95233.59;5011934;28;20198;-63
2022/08/09 10:31:22;;;;;;;7.25;3.75;;;;;;;30.51;33.55;95346.50;5011954;28;20688;-64
2022/08/09 10:33:48;;;;;;;2.92;1.75;;;;;;;30.68;29.72;95543.50;5011789;28;20198;-62
2022/08/09 10:36:15;;;;;;;2.88;1.52;;;;;;;30.92;27.88;95608.13;4993631;28;20326;-61
2022/08/09 10:38:45;;;;;;;8.93;2.67;;;;;;;31.45;29.17;95550.75;5012049;28;20290;-61
2022/08/09 10:41:13;;;;;;;2.88;2.08;;;;;;;31.77;28.27;95579.19;4994487;28;20309;-62
2022/08/09 10:43:44;;;;;;;2.33;1.70;;;;;;;31.88;29.15;95523.84;5011718;28;20185;-62
2022/08/09 10:46:20;;;;;;;6.05;2.45;;;;;;;32.11;29.64;95507.91;5011914;28;20293;-62
2022/08/09 10:48:57;;;;;;;3.70;1.70;;;;;;;31.30;29.04;95516.31;5011775;28;20645;-60
2022/08/09 10:51:32;;;;;;;3.15;2.33;;;;;;;31.03;29.71;95475.09;5011557;28;20242;-60
2022/08/09 10:54:05;;;;;;;2.20;1.65;;;;;;;30.69;28.65;95531.97;5011455;28;20193;-64
2022/08/09 10:56:33;;;;;;;3.53;2.42;;;;;;;30.64;29.16;95487.22;4993939;28;20222;-63
2022/08/09 10:59:02;;;;;;;4.00;2.25;;;;;;;30.49;29.29;95492.97;5011749;28;20222;-62
2022/08/09 11:01:30;;;;;;;4.75;1.85;;;;;;;30.61;29.60;95464.84;4993921;28;20215;-62
2022/08/09 11:04:14;;;;;;;4.60;2.15;;;;;;;31.07;29.14;95482.25;5011751;28;20665;-60
2022/08/09 11:06:44;;;;;;;5.28;1.73;;;;;;;31.30;28.46;95524.19;5011550;28;20319;-62
2022/08/09 11:09:10;;;;;;;1.90;1.80;;;;;;;31.13;28.74;95498.94;5011357;28;20657;-67
2022/08/09 11:11:57;;;;;;;4.57;1.60;;;;;;;30.96;28.48;95532.25;5011475;28;20226;-63
2022/08/09 11:14:40;;;;;;;4.53;2.10;;;;;;;31.18;29.41;95467.47;4964167;28;20234;-62
2022/08/09 11:17:12;;;;;;;4.05;2.03;;;;;;;30.98;28.87;95478.44;5011398;28;20293;-62
2022/08/09 11:19:57;;;;;;;4.55;2.10;;;;;;;31.37;29.77;95443.34;5011177;28;20213;-63
2022/08/09 11:22:44;;;;;;;2.53;2.20;;;;;;;31.72;30.77;95397.56;5011373;28;20206;-60
2022/08/09 11:25:21;;;;;;;4.28;2.28;;;;;;;31.53;29.21;95467.28;5011185;28;20205;-63
2022/08/09 11:27:52;;;;;;;5.03;1.98;;;;;;;31.13;28.98;95452.41;5011234;28;20187;-63
2022/08/09 11:30:21;;;;;;;6.88;2.42;;;;;;;31.06;30.52;95391.34;5011247;28;20546;-61
2022/08/09 11:32:49;;;;;;;8.02;2.50;;;;;;;30.89;30.31;95392.34;5011154;28;20687;-60
2022/08/09 11:35:26;;;;;;;6.30;2.72;;;;;;;30.68;30.54;95364.94;5011133;28;20221;-63
2022/08/09 11:37:55;;;;;;;6.50;2.78;;;;;;;30.50;30.32;95392.16;4993580;28;20664;-63